createdAt,value
2019-02-28T00:02:29.155Z,99.90
2019-02-28T00:04:58.673Z,99.90
2019-02-28T00:07:28.161Z,99.90
2019-02-28T00:09:58.242Z,99.90
2019-02-28T00:12:27.626Z,99.90
2019-02-28T00:14:58.637Z,99.90
2019-02-28T00:17:28.267Z,99.90
2019-02-28T00:19:57.990Z,99.90
2019-02-28T00:22:28.290Z,99.90
2019-02-28T00:24:58.162Z,99.90
2019-02-28T00:27:27.568Z,99.90
2019-02-28T00:29:57.396Z,99.90
2019-02-28T00:32:26.846Z,99.90
2019-02-28T00:34:56.930Z,99.90
2019-02-28T00:37:26.747Z,99.90
2019-02-28T00:39:56.341Z,99.90
2019-02-28T00:42:25.709Z,99.90
2019-02-28T00:44:55.625Z,99.90
2019-02-28T00:47:24.826Z,99.90
2019-02-28T00:49:55.591Z,99.90
2019-02-28T00:52:25.275Z,99.90
2019-02-28T00:54:54.686Z,99.90
2019-02-28T00:57:24.694Z,99.90
2019-02-28T00:59:54.487Z,99.90
2019-02-28T01:02:24.005Z,99.90
2019-02-28T01:04:53.600Z,99.90
2019-02-28T01:07:23.169Z,99.90
2019-02-28T01:09:52.617Z,99.90
2019-02-28T01:12:22.099Z,99.90
2019-02-28T01:14:51.522Z,99.90
2019-02-28T01:17:20.966Z,99.90
2019-02-28T01:19:50.414Z,99.90
2019-02-28T01:22:19.790Z,99.90
2019-02-28T01:24:49.133Z,99.90
2019-02-28T01:27:20.868Z,99.90
2019-02-28T01:29:49.887Z,99.90
2019-02-28T01:32:19.438Z,99.90
2019-02-28T01:34:48.898Z,99.90
2019-02-28T01:37:20.804Z,99.90
2019-02-28T01:39:49.393Z,99.90
2019-02-28T01:42:19.987Z,99.90
2019-02-28T01:44:49.748Z,99.90
2019-02-28T01:47:20.187Z,99.90
2019-02-28T01:49:50.435Z,99.90
2019-02-28T01:52:19.786Z,99.90
2019-02-28T01:54:49.276Z,99.90
2019-02-28T01:57:18.731Z,99.90
2019-02-28T01:59:47.979Z,99.90
2019-02-28T02:02:17.233Z,99.90
2019-02-28T02:04:46.652Z,99.90
2019-02-28T02:07:16.486Z,99.90
2019-02-28T02:09:46.140Z,99.90
2019-02-28T02:12:16.439Z,99.90
2019-02-28T02:14:45.855Z,99.90
2019-02-28T02:17:15.411Z,99.90
2019-02-28T02:19:44.878Z,99.90
2019-02-28T02:22:14.338Z,99.90
2019-02-28T02:24:43.918Z,99.90
2019-02-28T02:27:16.233Z,99.90
2019-02-28T02:29:44.553Z,99.90
2019-02-28T02:32:13.896Z,99.90
2019-02-28T02:34:43.272Z,99.90
2019-02-28T02:37:12.611Z,99.90
2019-02-28T02:39:42.278Z,99.90
2019-02-28T02:42:11.832Z,99.90
2019-02-28T02:44:41.239Z,99.90
2019-02-28T02:47:10.676Z,99.90
2019-02-28T02:49:40.251Z,99.90
2019-02-28T02:52:10.027Z,99.90
2019-02-28T02:54:39.429Z,99.90
2019-02-28T02:57:13.933Z,99.90
2019-02-28T02:59:40.498Z,99.90
2019-02-28T03:02:09.971Z,99.90
2019-02-28T03:04:39.585Z,99.90
2019-02-28T03:07:09.255Z,99.90
2019-02-28T03:09:43.521Z,99.90
2019-02-28T03:12:10.439Z,99.90
2019-02-28T03:14:40.243Z,99.90
2019-02-28T03:17:12.030Z,99.90
2019-02-28T03:19:41.522Z,99.90
2019-02-28T03:22:11.318Z,99.90
2019-02-28T03:24:40.712Z,99.90
2019-02-28T03:27:10.648Z,99.90
2019-02-28T03:29:43.183Z,99.90
2019-02-28T03:32:11.432Z,99.90
2019-02-28T03:34:40.899Z,99.90
2019-02-28T03:37:10.658Z,99.90
2019-02-28T03:39:40.158Z,99.90
2019-02-28T03:42:11.011Z,99.90
2019-02-28T03:44:40.387Z,99.90
2019-02-28T03:47:10.253Z,99.90
2019-02-28T03:49:39.596Z,99.90
2019-02-28T03:52:08.923Z,99.90
2019-02-28T03:54:38.320Z,99.90
2019-02-28T03:57:07.872Z,99.90
2019-02-28T03:59:37.386Z,99.90
2019-02-28T04:02:06.778Z,99.90
2019-02-28T04:04:36.375Z,99.90
2019-02-28T04:07:06.134Z,99.90
2019-02-28T04:09:35.485Z,99.90
2019-02-28T04:12:08.736Z,99.90
2019-02-28T04:14:36.362Z,99.90
2019-02-28T04:17:06.070Z,99.90
2019-02-28T04:19:35.519Z,99.90
2019-02-28T04:22:05.176Z,99.90
2019-02-28T04:24:34.538Z,99.90
2019-02-28T04:27:07.035Z,99.90
2019-02-28T04:29:35.213Z,99.90
2019-02-28T04:32:04.580Z,99.90
2019-02-28T04:34:33.954Z,99.90
2019-02-28T04:37:03.351Z,99.90
2019-02-28T04:39:32.860Z,99.90
2019-02-28T04:42:05.016Z,99.90
2019-02-28T04:44:33.455Z,99.90
2019-02-28T04:47:03.446Z,99.90
2019-02-28T04:49:33.938Z,99.90
2019-02-28T04:52:03.581Z,99.90
2019-02-28T04:54:33.264Z,99.90
2019-02-28T04:57:02.865Z,99.90
2019-02-28T04:59:34.366Z,99.90
2019-02-28T05:02:03.678Z,99.90
2019-02-28T05:04:36.160Z,99.90
2019-02-28T05:07:04.479Z,99.90
2019-02-28T05:09:34.012Z,99.90
2019-02-28T05:12:05.224Z,99.90
2019-02-28T05:14:34.783Z,99.90
2019-02-28T05:17:04.155Z,99.90
2019-02-28T05:19:35.852Z,99.90
2019-02-28T05:22:04.929Z,99.90
2019-02-28T05:24:39.448Z,99.90
2019-02-28T05:27:07.415Z,99.90
2019-02-28T05:29:36.835Z,99.90
2019-02-28T05:32:06.219Z,99.90
2019-02-28T05:34:35.625Z,99.90
2019-02-28T05:37:05.173Z,99.90
2019-02-28T05:39:34.634Z,99.90
2019-02-28T05:42:05.681Z,99.90
2019-02-28T05:44:37.390Z,99.90
2019-02-28T05:47:06.445Z,99.90
2019-02-28T05:49:35.890Z,99.90
2019-02-28T05:52:05.460Z,99.90
2019-02-28T05:54:35.161Z,99.90
2019-02-28T05:57:07.806Z,99.90
2019-02-28T05:59:36.123Z,99.90
2019-02-28T06:02:12.791Z,99.90
2019-02-28T06:04:53.814Z,99.90
2019-02-28T06:07:25.990Z,99.90
2019-02-28T06:09:56.145Z,99.90
2019-02-28T06:12:26.190Z,99.90
2019-02-28T06:15:01.929Z,99.90
2019-02-28T06:17:26.782Z,99.90
2019-02-28T06:19:56.290Z,99.90
2019-02-28T06:22:26.354Z,99.90
2019-02-28T06:24:55.788Z,99.90
2019-02-28T06:27:25.780Z,99.90
2019-02-28T06:29:55.153Z,99.90
2019-02-28T06:32:25.916Z,99.90
2019-02-28T06:34:56.360Z,99.90
2019-02-28T06:37:26.939Z,99.90
2019-02-28T06:39:58.633Z,99.90
2019-02-28T06:42:27.741Z,99.90
2019-02-28T06:44:58.658Z,99.90
2019-02-28T06:47:28.630Z,99.90
2019-02-28T06:49:58.146Z,99.90
2019-02-28T06:52:27.781Z,99.90
2019-02-28T06:54:57.232Z,99.90
2019-02-28T06:57:27.582Z,99.90
2019-02-28T06:59:57.320Z,99.90
2019-02-28T07:02:28.546Z,99.90
2019-02-28T07:04:58.735Z,99.90
2019-02-28T07:07:28.662Z,99.90
2019-02-28T07:09:58.323Z,99.90
2019-02-28T07:12:29.832Z,99.90
2019-02-28T07:14:59.770Z,99.90
2019-02-28T07:17:29.700Z,99.90
2019-02-28T07:20:02.063Z,99.90
2019-02-28T07:22:30.623Z,99.90
2019-02-28T07:25:00.065Z,99.90
2019-02-28T07:27:29.888Z,99.90
2019-02-28T07:29:59.825Z,99.90
2019-02-28T07:32:31.380Z,99.90
2019-02-28T07:35:00.676Z,99.90
2019-02-28T07:37:30.426Z,99.90
2019-02-28T07:39:59.938Z,99.90
2019-02-28T07:42:29.598Z,99.90
2019-02-28T07:44:59.131Z,99.90
2019-02-28T07:47:28.510Z,99.90
2019-02-28T07:49:58.062Z,99.90
2019-02-28T07:52:32.462Z,99.90
2019-02-28T07:54:58.991Z,99.90
2019-02-28T07:57:28.527Z,99.90
2019-02-28T07:59:59.920Z,99.90
2019-02-28T08:02:30.083Z,99.90
2019-02-28T08:04:59.500Z,99.90
2019-02-28T08:07:28.882Z,99.90
2019-02-28T08:09:58.343Z,99.90
2019-02-28T08:12:30.868Z,99.90
2019-02-28T08:14:58.913Z,99.90
2019-02-28T08:17:28.438Z,99.90
2019-02-28T08:19:58.722Z,99.90
2019-02-28T08:22:29.131Z,99.90
2019-02-28T08:24:58.643Z,99.90
2019-02-28T08:27:28.006Z,99.90
2019-02-28T08:29:57.466Z,99.90
2019-02-28T08:32:27.028Z,99.90
2019-02-28T08:34:59.407Z,99.90
2019-02-28T08:37:28.052Z,99.90
2019-02-28T08:39:57.578Z,99.90
2019-02-28T08:42:27.258Z,99.90
2019-02-28T08:44:59.031Z,99.90
2019-02-28T08:47:27.720Z,99.90
2019-02-28T08:49:57.193Z,99.90
2019-02-28T08:52:26.584Z,99.90
2019-02-28T08:54:56.038Z,99.90
2019-02-28T08:57:26.451Z,99.90
2019-02-28T08:59:56.245Z,99.90
2019-02-28T09:02:26.787Z,99.90
2019-02-28T09:04:56.109Z,99.90
2019-02-28T09:07:25.667Z,99.90
2019-02-28T09:09:55.068Z,99.90
2019-02-28T09:12:24.619Z,99.90
2019-02-28T09:14:55.332Z,99.90
2019-02-28T09:17:25.503Z,99.90
2019-02-28T09:19:55.164Z,99.90
2019-02-28T09:22:27.350Z,99.90
2019-02-28T09:24:56.350Z,99.90
2019-02-28T09:27:25.927Z,99.90
2019-02-28T09:29:55.580Z,99.90
2019-02-28T09:32:25.095Z,99.90
2019-02-28T09:34:54.463Z,99.90
2019-02-28T09:37:24.202Z,99.90
2019-02-28T09:39:54.287Z,99.90
2019-02-28T09:42:24.520Z,99.90
2019-02-28T09:44:54.175Z,99.90
2019-02-28T09:47:26.702Z,99.90
2019-02-28T09:49:54.711Z,99.90
2019-02-28T09:52:24.237Z,99.90
2019-02-28T09:54:56.278Z,99.90
2019-02-28T09:57:24.772Z,99.90
2019-02-28T09:59:54.147Z,99.90
2019-02-28T10:02:23.484Z,99.90
2019-02-28T10:04:53.191Z,99.90
2019-02-28T10:07:23.366Z,99.90
2019-02-28T10:09:54.023Z,99.90
2019-02-28T10:12:23.723Z,98.90
2019-02-28T10:14:53.162Z,98.60
2019-02-28T10:17:28.597Z,98.30
2019-02-28T10:19:54.287Z,95.80
2019-02-28T10:22:23.640Z,93.80
2019-02-28T10:24:53.294Z,95.10
2019-02-28T10:27:23.312Z,93.90
2019-02-28T10:29:54.358Z,93.10
2019-02-28T10:32:23.887Z,92.90
2019-02-28T10:34:53.470Z,94.50
2019-02-28T10:37:23.606Z,96.60
2019-02-28T10:39:53.375Z,93.70
2019-02-28T10:42:22.995Z,90.40
2019-02-28T10:44:52.522Z,87.30
2019-02-28T10:47:22.147Z,85.60
2019-02-28T10:49:51.691Z,85.90
2019-02-28T10:52:23.437Z,80.70
2019-02-28T10:54:52.445Z,85.00
2019-02-28T10:57:22.098Z,90.50
2019-02-28T10:59:52.100Z,88.50
2019-02-28T11:02:21.486Z,85.30
2019-02-28T11:04:50.993Z,84.90
2019-02-28T11:07:20.463Z,75.70
2019-02-28T11:09:50.062Z,75.40
2019-02-28T11:12:20.411Z,74.50
2019-02-28T11:14:51.032Z,75.30
2019-02-28T11:17:20.604Z,72.10
2019-02-28T11:19:51.992Z,64.00
2019-02-28T11:22:21.517Z,58.50
2019-02-28T11:24:51.281Z,59.60
2019-02-28T11:27:22.788Z,56.00
2019-02-28T11:29:52.029Z,55.10
2019-02-28T11:32:21.708Z,54.20
2019-02-28T11:34:51.589Z,54.20
2019-02-28T11:37:20.959Z,53.30
2019-02-28T11:39:51.005Z,52.60
2019-02-28T11:42:20.493Z,54.80
2019-02-28T11:44:50.398Z,56.10
2019-02-28T11:47:20.240Z,54.60
2019-02-28T11:49:49.813Z,54.80
2019-02-28T11:52:19.165Z,54.60
2019-02-28T11:54:48.551Z,55.10
2019-02-28T11:57:18.059Z,55.90
2019-02-28T11:59:47.676Z,55.80
2019-02-28T12:02:20.227Z,56.20
2019-02-28T12:04:48.996Z,54.90
2019-02-28T12:07:18.438Z,55.30
2019-02-28T12:09:47.868Z,54.30
2019-02-28T12:12:18.876Z,54.80
2019-02-28T12:14:48.259Z,57.50
2019-02-28T12:17:17.652Z,58.80
2019-02-28T12:19:47.586Z,57.00
2019-02-28T12:22:18.501Z,56.50
2019-02-28T12:24:47.962Z,57.90
2019-02-28T12:27:17.665Z,56.20
2019-02-28T12:29:49.246Z,58.40
2019-02-28T12:32:18.231Z,59.20
2019-02-28T12:34:48.103Z,62.10
2019-02-28T12:37:17.795Z,67.80
2019-02-28T12:39:47.413Z,71.40
2019-02-28T12:42:16.885Z,71.50
2019-02-28T12:44:48.974Z,75.10
2019-02-28T12:47:17.449Z,81.40
2019-02-28T12:49:46.999Z,90.40
2019-02-28T12:52:16.430Z,90.80
2019-02-28T12:54:45.813Z,88.50
2019-02-28T12:57:15.427Z,92.30
2019-02-28T12:59:45.844Z,92.30
2019-02-28T13:02:16.056Z,92.00
2019-02-28T13:04:45.622Z,91.20
2019-02-28T13:07:15.438Z,88.80
2019-02-28T13:09:44.941Z,89.50
2019-02-28T13:12:14.550Z,90.40
2019-02-28T13:14:44.171Z,90.10
2019-02-28T13:17:13.686Z,88.40
2019-02-28T13:19:43.246Z,87.60
2019-02-28T13:22:13.231Z,89.30
2019-02-28T13:24:46.578Z,89.40
2019-02-28T13:27:14.551Z,89.70
2019-02-28T13:29:43.932Z,90.20
2019-02-28T13:32:13.447Z,89.70
2019-02-28T13:34:43.147Z,91.00
2019-02-28T13:37:12.786Z,91.10
2019-02-28T13:39:42.301Z,88.90
2019-02-28T13:42:11.777Z,90.30
2019-02-28T13:44:41.379Z,91.20
2019-02-28T13:47:11.039Z,90.80
2019-02-28T13:49:40.734Z,91.50
2019-02-28T13:52:10.450Z,90.10
2019-02-28T13:54:41.963Z,90.30
2019-02-28T13:57:11.503Z,89.10
2019-02-28T13:59:41.326Z,90.90
2019-02-28T14:02:10.826Z,88.60
2019-02-28T14:04:40.436Z,86.20
2019-02-28T14:07:10.046Z,82.80
2019-02-28T14:09:39.560Z,84.10
2019-02-28T14:12:09.404Z,89.10
2019-02-28T14:14:39.070Z,83.00
2019-02-28T14:17:10.060Z,86.70
2019-02-28T14:19:39.633Z,84.20
2019-02-28T14:22:11.614Z,83.80
2019-02-28T14:24:40.539Z,83.20
2019-02-28T14:27:10.401Z,84.80
2019-02-28T14:29:43.003Z,88.10
2019-02-28T14:32:11.420Z,87.70
2019-02-28T14:34:40.873Z,89.20
2019-02-28T14:37:10.393Z,87.10
2019-02-28T14:39:42.588Z,87.80
2019-02-28T14:42:11.235Z,88.60
2019-02-28T14:44:40.836Z,89.90
2019-02-28T14:47:10.342Z,88.40
2019-02-28T14:49:40.032Z,89.50
2019-02-28T14:52:09.785Z,90.90
2019-02-28T14:54:39.296Z,89.30
2019-02-28T14:57:08.811Z,88.70
2019-02-28T14:59:38.312Z,83.60
2019-02-28T15:02:08.147Z,86.50
2019-02-28T15:04:39.773Z,87.10
2019-02-28T15:07:08.892Z,89.20
2019-02-28T15:09:38.379Z,91.10
2019-02-28T15:12:08.221Z,90.10
2019-02-28T15:14:40.557Z,90.30
2019-02-28T15:17:09.354Z,93.20
2019-02-28T15:19:38.739Z,94.40
2019-02-28T15:22:08.854Z,94.90
2019-02-28T15:24:40.551Z,95.70
2019-02-28T15:27:10.100Z,96.60
2019-02-28T15:29:39.502Z,97.60
2019-02-28T15:32:14.236Z,98.60
2019-02-28T15:34:43.511Z,99.90
2019-02-28T15:37:13.140Z,99.90
2019-02-28T15:39:42.541Z,99.90
2019-02-28T15:42:12.356Z,99.90
2019-02-28T15:44:41.970Z,99.90
2019-02-28T15:47:11.857Z,99.90
2019-02-28T15:49:42.429Z,99.90
2019-02-28T15:52:12.579Z,99.90
2019-02-28T15:54:42.135Z,99.90
2019-02-28T15:57:11.933Z,99.90
2019-02-28T15:59:41.824Z,99.90
2019-02-28T16:02:11.821Z,99.90
2019-02-28T16:04:41.293Z,99.90
2019-02-28T16:07:11.037Z,99.90
2019-02-28T16:09:40.938Z,99.90
2019-02-28T16:12:12.566Z,99.90
2019-02-28T16:14:42.236Z,99.90
2019-02-28T16:17:12.184Z,99.90
2019-02-28T16:19:41.582Z,99.90
2019-02-28T16:22:14.612Z,99.90
2019-02-28T16:24:43.407Z,99.90
2019-02-28T16:27:13.407Z,99.90
2019-02-28T16:29:43.316Z,99.90
2019-02-28T16:32:14.202Z,99.90
2019-02-28T16:34:44.294Z,99.90
2019-02-28T16:37:14.148Z,99.90
2019-02-28T16:39:43.651Z,99.90
2019-02-28T16:42:13.421Z,99.90
2019-02-28T16:44:42.930Z,99.90
2019-02-28T16:47:12.405Z,99.90
2019-02-28T16:49:44.457Z,99.90
2019-02-28T16:52:13.127Z,99.90
2019-02-28T16:54:42.641Z,99.90
2019-02-28T16:57:12.232Z,99.90
2019-02-28T16:59:42.976Z,99.90
2019-02-28T17:02:12.590Z,99.90
2019-02-28T17:04:42.186Z,99.90
2019-02-28T17:07:11.790Z,99.90
2019-02-28T17:09:43.050Z,99.90
2019-02-28T17:12:36.188Z,99.90
2019-02-28T17:15:11.167Z,99.90
2019-02-28T17:17:48.904Z,99.90
2019-02-28T17:20:19.051Z,99.90
2019-02-28T17:22:48.869Z,99.90
2019-02-28T17:25:21.888Z,99.90
2019-02-28T17:28:07.712Z,99.90
2019-02-28T17:30:43.151Z,99.90
2019-02-28T17:33:12.692Z,99.90
2019-02-28T17:35:42.286Z,99.90
2019-02-28T17:38:11.816Z,99.90
2019-02-28T17:40:41.486Z,99.90
2019-02-28T17:43:11.086Z,99.90
2019-02-28T17:45:40.980Z,99.90
2019-02-28T17:48:27.431Z,99.90
2019-02-28T17:51:23.069Z,99.90
2019-02-28T17:54:39.531Z,99.90
2019-02-28T17:58:01.095Z,99.90
2019-02-28T18:01:14.033Z,99.90
2019-02-28T18:04:27.628Z,99.90
2019-02-28T18:07:23.654Z,99.90
2019-02-28T18:10:50.369Z,99.90
2019-02-28T18:13:47.737Z,99.90
2019-02-28T18:17:17.943Z,99.90
2019-02-28T18:20:34.397Z,99.90
2019-02-28T18:23:45.380Z,99.90
2019-02-28T18:26:47.254Z,99.90
2019-02-28T18:29:33.129Z,99.90
2019-02-28T18:32:02.921Z,99.90
2019-02-28T18:34:35.040Z,99.90
2019-02-28T18:37:05.045Z,99.90
2019-02-28T18:39:34.666Z,99.90
2019-02-28T18:42:04.572Z,99.90
2019-02-28T18:44:37.458Z,99.90
2019-02-28T18:47:07.554Z,99.90
2019-02-28T18:49:37.705Z,99.90
2019-02-28T18:52:07.328Z,99.90
2019-02-28T18:54:39.266Z,99.90
2019-02-28T18:57:09.381Z,99.90
2019-02-28T18:59:39.653Z,99.90
2019-02-28T19:02:09.500Z,99.90
2019-02-28T19:04:39.528Z,99.90
2019-02-28T19:07:09.461Z,99.90
2019-02-28T19:09:39.127Z,99.90
2019-02-28T19:12:09.139Z,99.90
2019-02-28T19:14:39.037Z,99.90
2019-02-28T19:17:08.800Z,99.90
2019-02-28T19:19:38.903Z,99.90
2019-02-28T19:22:08.654Z,99.90
2019-02-28T19:24:38.720Z,99.90
2019-02-28T19:27:08.643Z,99.90
2019-02-28T19:29:38.173Z,99.90
2019-02-28T19:32:07.914Z,99.90
2019-02-28T19:34:37.366Z,99.90
2019-02-28T19:37:07.097Z,99.90
2019-02-28T19:39:37.126Z,99.90
2019-02-28T19:42:07.019Z,99.90
2019-02-28T19:44:36.759Z,99.90
2019-02-28T19:47:06.765Z,99.90
2019-02-28T19:49:37.093Z,99.90
2019-02-28T19:52:08.243Z,99.90
2019-02-28T19:54:38.119Z,99.90
2019-02-28T19:57:07.873Z,99.90
2019-02-28T19:59:37.770Z,99.90
2019-02-28T20:02:07.472Z,99.90
2019-02-28T20:04:37.711Z,99.90
2019-02-28T20:07:07.814Z,99.90
2019-02-28T20:09:37.824Z,99.90
2019-02-28T20:12:07.613Z,99.90
2019-02-28T20:14:37.662Z,99.90
2019-02-28T20:17:08.005Z,99.90
2019-02-28T20:19:37.933Z,99.90
2019-02-28T20:22:07.517Z,99.90
2019-02-28T20:24:37.386Z,99.90
2019-02-28T20:27:07.350Z,99.90
2019-02-28T20:29:37.009Z,99.90
2019-02-28T20:32:06.570Z,99.90
2019-02-28T20:34:36.329Z,99.90
2019-02-28T20:37:06.105Z,99.90
2019-02-28T20:39:35.993Z,99.90
2019-02-28T20:42:05.766Z,99.90
2019-02-28T20:44:35.558Z,99.90
2019-02-28T20:47:05.441Z,99.90
2019-02-28T20:49:35.838Z,99.90
2019-02-28T20:52:05.696Z,99.90
2019-02-28T20:54:35.619Z,99.90
2019-02-28T20:57:05.488Z,99.90
2019-02-28T20:59:35.781Z,99.90
2019-02-28T21:02:05.600Z,99.90
2019-02-28T21:04:36.355Z,99.90
2019-02-28T21:07:06.153Z,99.90
2019-02-28T21:09:44.596Z,99.90
2019-02-28T21:12:07.923Z,99.90
2019-02-28T21:14:38.202Z,99.90
2019-02-28T21:17:08.360Z,99.90
2019-02-28T21:19:38.608Z,99.90
2019-02-28T21:22:08.164Z,99.90
2019-02-28T21:24:37.872Z,99.90
2019-02-28T21:27:07.442Z,99.90
2019-02-28T21:29:37.371Z,99.90
2019-02-28T21:32:07.526Z,99.90
2019-02-28T21:34:37.515Z,99.90
2019-02-28T21:37:07.402Z,99.90
2019-02-28T21:39:37.220Z,99.90
2019-02-28T21:42:06.886Z,99.90
2019-02-28T21:44:36.562Z,99.90
2019-02-28T21:47:06.575Z,99.90
2019-02-28T21:49:36.234Z,99.90
2019-02-28T21:52:05.966Z,99.90
2019-02-28T21:54:35.811Z,99.90
2019-02-28T21:57:09.479Z,99.90
2019-02-28T21:59:39.420Z,99.90
2019-02-28T22:02:08.891Z,99.90
2019-02-28T22:04:38.884Z,99.90
2019-02-28T22:07:08.647Z,99.90
2019-02-28T22:09:38.222Z,99.90
2019-02-28T22:12:07.725Z,99.90
2019-02-28T22:14:37.338Z,99.90
2019-02-28T22:17:06.879Z,99.90
2019-02-28T22:19:36.391Z,99.90
2019-02-28T22:22:05.995Z,99.90
2019-02-28T22:24:35.419Z,99.90
2019-02-28T22:27:04.947Z,99.90
2019-02-28T22:29:34.446Z,99.90
2019-02-28T22:32:24.643Z,99.90
2019-02-28T22:35:04.903Z,99.90
2019-02-28T22:37:34.512Z,99.90
2019-02-28T22:40:04.245Z,99.90
2019-02-28T22:42:33.870Z,99.90
2019-02-28T22:45:03.345Z,99.90
2019-02-28T22:47:32.734Z,99.90
2019-02-28T22:50:02.191Z,99.90
2019-02-28T22:52:31.630Z,99.90
2019-02-28T22:55:03.111Z,99.90
2019-02-28T22:57:32.554Z,99.90
2019-02-28T23:00:02.139Z,99.90
2019-02-28T23:02:31.984Z,99.90
2019-02-28T23:05:01.487Z,99.90
2019-02-28T23:07:30.948Z,99.90
2019-02-28T23:10:00.587Z,99.90
2019-02-28T23:12:30.095Z,99.90
2019-02-28T23:14:59.709Z,99.90
2019-02-28T23:17:29.120Z,99.90
2019-02-28T23:19:58.877Z,99.90
2019-02-28T23:22:28.301Z,99.90
2019-02-28T23:24:57.815Z,99.90
2019-02-28T23:27:27.385Z,99.90
2019-02-28T23:30:25.170Z,99.90
2019-02-28T23:33:09.490Z,99.90
2019-02-28T23:35:44.806Z,99.90
2019-02-28T23:38:14.385Z,99.90
2019-02-28T23:40:43.945Z,99.90
2019-02-28T23:43:14.328Z,99.90
2019-02-28T23:45:44.019Z,99.90
2019-02-28T23:48:13.763Z,99.90
2019-02-28T23:50:43.146Z,99.90
2019-02-28T23:53:12.670Z,99.90
2019-02-28T23:55:42.105Z,99.90
2019-02-28T23:58:11.724Z,99.90
